Weather observations for the past three days for
St. James Municipal Airport
Metric (Imperial)
Date Time (cdt) Wind (kph) Vis. (km) Weather Sky Cond. Temperature (ºC) Relative Humidity Wind Chill (°C) Heat Index (°C) Pressure Precipitation (cm)
Air Dwpt 6 hour altimeter (cm) sea level (mb) 1 hr 3 hr 6 hr
Max. Min.
04 10:55 N 35 G 50 16.09 Fair and Breezy CLR 17 1 34% 75.03 0.0
04 10:35 NW 39 16.09 Fair and Breezy CLR 17 1 34% 75.03 0.0
04 10:15 NW 31 G 44 16.09 Fair CLR 16 1 36% 75.03 0.0
04 09:55 NW 35 16.09 Fair and Breezy CLR 16 1 36% 75.03 0.0
04 09:35 N 33 G 52 16.09 Fair and Breezy CLR 16 0 34% 75.03 0.0
04 09:15 N 35 G 46 16.09 Fair and Breezy CLR 15 2 42% 75.01 0.0
04 08:55 NW 31 G 43 16.09 Fair CLR 16 4 45% 75.01 0.0
04 08:35 NW 31 G 41 16.09 Fair CLR 16 4 45% 74.98 0.0
04 08:15 NW 35 G 44 16.09 Fair and Breezy CLR 15 4 48% 74.98 0.0
04 07:55 W 33 16.09 Fair and Breezy CLR 15 3 45% 74.98 0.0
04 07:35 W 28 16.09 Fair CLR 15 4 48% 74.96 0.0
04 07:15 W 28 16.09 Fair CLR 15 3 45% 74.88 0.0
04 06:55 W 33 16.09 Fair and Breezy CLR 15 3 45% 74.85 0.0
04 06:35 SW 33 G 44 16.09 Fair and Breezy CLR 14 3 48% 74.83 0.0
04 06:15 SW 31 16.09 Fair CLR 14 3 48% 74.83 0.0
04 05:55 SW 24 16.09 Fair CLR 13 3 51% 74.85 0.0
04 05:35 SW 26 16.09 Fair CLR 12 2 51% 74.85 0.0
04 05:15 SW 24 16.09 Fair CLR 12 2 51% 74.88 0.0
04 04:55 SW 20 16.09 Fair CLR 11 2 54% 74.9 0.0
04 04:35 SW 20 16.09 Fair CLR 11 2 54% 74.93 0.0
04 04:15 SW 22 16.09 Fair CLR 11 2 54% 74.93 0.0
04 03:55 SW 19 16.09 Fair CLR 10 2 58% 8 74.96 0.0
04 03:35 SW 19 16.09 Fair CLR 10 2 58% 8 74.98 0.0
04 03:15 SW 20 16.09 Fair CLR 9 2 62% 6 75.01 0.0
04 02:55 SW 19 16.09 Fair CLR 9 2 62% 7 75.03 0.0
04 02:35 SW 17 16.09 Fair CLR 9 2 62% 7 75.06 0.0
04 02:15 SW 19 16.09 Fair CLR 10 2 58% 8 75.08 0.0
04 01:35 SW 15 16.09 Fair CLR 10 2 58% 8 75.13 0.0
04 01:15 SW 15 16.09 Fair CLR 10 2 58% 8 75.16 0.0
04 00:55 SW 15 16.09 Fair CLR 11 2 54% 75.18 0.0
04 00:35 SW 17 16.09 Fair CLR 11 2 54% 75.21 0.0
04 00:15 W 9 G 19 16.09 Fair CLR 12 1 47% 75.23 0.0
03 23:55 SW 15 16.09 Fair CLR 12 1 47% 75.23 0.0
03 23:35 SW 15 16.09 Fair CLR 12 1 47% 75.26 0.0
03 23:15 SW 15 16.09 Fair CLR 12 1 47% 75.29 0.0
03 22:55 SW 13 16.09 Fair CLR 12 1 47% 75.31 0.0
03 22:35 SW 15 16.09 Fair CLR 13 1 44% 75.34 0.0
03 22:15 SW 11 16.09 Fair CLR 13 2 47% 75.36 0.0
03 21:55 SW 13 16.09 Fair CLR 13 2 47% 75.39 0.0
03 21:35 SW 13 16.09 Fair CLR 14 2 44% 75.39 0.0
03 21:15 W 11 16.09 Fair CLR 15 2 42% 75.39 0.0
03 20:55 W 11 16.09 Fair CLR 16 2 39% 75.39 0.0
03 20:35 W 6 16.09 Fair CLR 18 2 34% 75.36 0.0
03 20:15 W 6 16.09 Fair CLR 20 0 26% 75.36 0.0
03 19:55 Calm 16.09 Fair CLR 20 0 26% 75.36 0.0
03 19:35 NW 9 16.09 Fair CLR 21 0 25% 75.39 0.0
03 19:15 NW 11 G 22 16.09 Fair CLR 22 -1 22% 75.41 0.0
03 18:55 NW 15 G 26 16.09 Fair CLR 22 -1 22% 75.41 0.0
03 18:35 NW 15 G 35 16.09 Fair CLR 22 -2 20% 75.44 0.0
03 18:15 NW 20 16.09 Fair CLR 22 -1 22% 75.44 0.0
03 17:55 NW 26 G 35 16.09 Fair CLR 22 -1 22% 75.46 0.0
03 17:35 NW 22 G 33 16.09 Fair CLR 22 -1 22% 75.46 0.0
03 17:15 W 22 G 41 16.09 Fair CLR 22 -1 22% 75.46 0.0
03 16:55 W 22 G 41 16.09 Fair CLR 22 -1 22% 75.49 0.0
03 16:35 NW 28 G 37 16.09 Fair CLR 22 0 23% 75.49 0.0
03 16:15 NW 30 G 39 16.09 Fair CLR 22 0 23% 75.51 0.0
03 15:55 NW 31 16.09 Fair CLR 22 1 25% 75.51 0.0
03 15:35 NW 26 G 39 16.09 Fair CLR 22 1 25% 75.54 0.0
03 15:15 NW 31 G 43 16.09 Fair CLR 22 1 25% 75.57 0.0
03 14:55 NW 39 16.09 Fair and Breezy CLR 21 1 27% 75.57 0.0
03 14:35 NW 20 G 39 14.48 Fair CLR 21 0 25% 75.59 0.0
03 14:15 NW 28 G 43 16.09 Fair CLR 21 1 27% 75.62 0.0
03 13:55 NW 37 16.09 Fair and Breezy CLR 21 1 27% 75.62 0.0
03 13:35 NW 37 G 52 16.09 Fair and Breezy CLR 21 1 27% 75.62 0.0
03 13:15 NW 30 G 44 16.09 Fair CLR 20 1 28% 75.64 0.0
03 12:55 N 30 G 48 16.09 Fair CLR 20 1 28% 75.67 0.0
03 12:35 NW 30 G 54 16.09 Fair CLR 20 1 28% 75.67 0.0
03 12:15 N 30 G 48 16.09 Fair CLR 20 2 30% 75.67 0.0
03 11:55 N 35 16.09 Fair and Breezy CLR 20 2 30% 75.67 0.0
03 11:35 NW 39 G 48 16.09 Fair and Breezy CLR 19 3 35% 75.67 0.0
03 11:15 N 39 16.09 Fair and Breezy CLR 19 4 37% 75.64 0.0
03 10:55 NW 39 G 48 16.09 Fair and Breezy CLR 19 3 35% 75.67 0.0
03 10:35 NW 30 G 46 16.09 Fair CLR 18 3 37% 75.67 0.0
03 10:15 NW 30 G 44 16.09 Fair CLR 17 3 39% 75.64 0.0
03 09:55 NW 31 G 46 16.09 Fair CLR 16 3 42% 75.64 0.0
03 09:35 NW 31 G 44 16.09 Fair CLR 15 3 45% 75.64 0.0
03 09:15 NW 33 G 43 16.09 Fair and Breezy CLR 14 3 48% 75.64 0.0
03 08:55 NW 35 G 46 16.09 Fair and Breezy CLR 13 3 51% 75.62 0.0
03 08:35 NW 28 G 46 16.09 Fair CLR 13 3 51% 75.59 0.0
03 08:15 NW 35 16.09 Fair and Breezy CLR 12 3 54% 75.59 0.0
03 07:55 NW 31 G 43 16.09 Fair CLR 11 3 58% 75.57 0.0
03 07:35 NW 30 16.09 Fair CLR 11 3 58% 75.54 0.0
03 07:15 NW 30 G 46 16.09 Fair CLR 10 3 62% 7 75.51 0.0
03 06:55 NW 26 16.09 Fair CLR 10 3 62% 7 75.49 0.0
03 06:35 NW 24 G 37 16.09 Fair CLR 10 3 62% 7 75.46 0.0
03 06:15 NW 24 16.09 Fair CLR 10 3 62% 7 75.44 0.0
03 05:55 W 20 16.09 Fair CLR 11 3 58% 75.44 0.0
03 05:35 W 19 16.09 Fair CLR 12 3 54% 75.41 0.0
03 05:15 W 17 G 28 16.09 Fair CLR 12 3 54% 75.44 0.0
03 04:55 W 17 16.09 A Few Clouds FEW095 12 1 47% 75.44 0.0
03 04:35 W 17 16.09 Mostly Cloudy BKN095 12 1 47% 75.44 0.0
03 04:15 SW 19 16.09 Overcast OVC095 13 1 44% 75.46 0.0
03 03:55 SW 19 16.09 Overcast OVC095 13 2 47% 75.46 0.0
03 03:35 SW 17 16.09 Mostly Cloudy BKN100 12 2 51% 75.46 0.0
03 03:15 S 20 16.09 Partly Cloudy SCT100 13 0 41% 75.46 0.0
03 02:55 S 20 16.09 Overcast OVC100 13 0 41% 75.49 0.0
03 02:35 S 26 16.09 Partly Cloudy SCT110 13 0 41% 75.51 0.0
03 02:15 S 24 16.09 Partly Cloudy FEW075 FEW090 SCT110 14 0 39% 75.51 0.0
03 01:55 S 28 16.09 Mostly Cloudy FEW020 SCT042 BKN075 14 0 39% 75.54 0.0
03 01:35 SE 28 16.09 Mostly Cloudy FEW020 SCT042 BKN070 14 1 41% 75.57 0.0
03 01:15 SE 24 16.09 Mostly Cloudy FEW021 SCT042 BKN060 14 0 39% 75.64 0.0
03 00:55 SE 13 16.09 Overcast FEW047 BKN070 OVC090 14 1 41% 75.67 0.0
03 00:35 SE 13 16.09 Overcast SCT075 OVC090 15 0 36% 75.69 0.0
03 00:15 S 19 G 30 16.09 Overcast SCT060 BKN075 OVC090 15 0 36% 75.67 0.0
02 23:55 S 28 16.09 Mostly Cloudy FEW022 SCT035 BKN055 15 1 39% 75.67 0.0
02 23:35 S 22 G 31 16.09 Overcast FEW022 BKN075 OVC100 15 0 36% 75.69 0.0
02 23:15 S 20 G 31 16.09 Overcast FEW065 BKN075 OVC100 16 0 34% 75.67 0.0
02 22:35 S 22 16.09 Overcast FEW060 BKN075 OVC090 15 1 39% 75.74 0.0
02 22:15 S 19 16.09 Overcast FEW080 OVC090 15 1 39% 75.74 0.0
02 21:55 S 17 16.09 Overcast BKN090 OVC110 15 1 39% 75.74 0.0
02 21:35 S 17 16.09 Overcast BKN090 OVC110 15 1 39% 75.77 0.0
02 21:15 S 15 16.09 Overcast BKN090 OVC120 15 1 39% 75.79 0.0
02 20:55 S 13 16.09 Overcast FEW080 OVC090 16 1 36% 75.82 0.0
02 20:35 S 11 16.09 Overcast BKN080 OVC090 16 2 39% 75.82 0.0
02 20:15 SW 13 16.09 Overcast SCT080 OVC090 17 1 34% 75.84 0.0
02 19:55 SW 11 16.09 Overcast FEW080 OVC090 17 1 34% 75.84 0.0
02 19:35 SW 13 G 26 16.09 Overcast FEW065 SCT075 OVC085 18 0 30% 75.87 0.0
02 19:15 W 20 16.09 Overcast SCT080 OVC090 18 -1 28% 75.87 0.0
02 18:55 W 17 16.09 Overcast BKN100 OVC120 19 0 28% 75.87 0.0
02 18:35 SW 22 16.09 Mostly Cloudy BKN110 19 -1 26% 75.87 0.0
02 18:15 SW 24 G 39 16.09 A Few Clouds FEW090 19 -1 26% 75.9 0.0
02 17:55 W 28 16.09 A Few Clouds FEW090 20 -1 24% 75.9 0.0
02 17:15 SW 22 G 35 16.09 Fair CLR 20 -1 24% 75.95 0.0
02 16:55 W 26 G 35 16.09 Fair CLR 20 -1 24% 75.95 0.0
02 16:35 SW 24 G 37 16.09 A Few Clouds FEW085 20 -1 24% 75.97 0.0
02 16:15 SW 17 G 33 16.09 Fair CLR 20 0 26% 76 0.0
02 15:55 SW 26 16.09 Fair CLR 19 -1 26% 76.02 0.0
02 15:35 SW 28 16.09 Fair CLR 19 -1 26% 76.05 0.0
02 15:15 W 24 16.09 Fair CLR 19 -1 26% 76.07 0.0
02 14:55 W 22 G 37 16.09 Fair CLR 19 -1 26% 76.1 0.0
02 14:35 SW 20 G 31 16.09 Fair CLR 19 -1 26% 76.12 0.0
02 14:15 W 24 16.09 Fair CLR 18 -2 26% 76.17 0.0
02 13:55 W 17 16.09 Fair CLR 17 -2 27% 76.17 0.0
02 13:35 W 15 G 31 16.09 Fair CLR 17 -2 27% 76.23 0.0
02 13:15 SW 19 16.09 Fair CLR 17 -2 27% 76.23 0.0
02 12:55 W 13 G 30 16.09 Fair CLR 16 -3 27% 76.28 0.0
02 12:35 W 19 G 30 16.09 Fair CLR 16 -2 29% 76.3 0.0
02 12:15 SW 19 G 30 16.09 Fair CLR 15 -3 29% 76.33 0.0
02 11:55 W 17 G 31 16.09 Fair CLR 15 -3 29% 76.35 0.0
02 11:35 SW 15 G 30 16.09 Fair CLR 14 -3 31% 76.35 0.0
02 11:15 W 15 G 30 16.09 Fair CLR 14 -3 31% 76.38 0.0
02 10:55 SW 20 16.09 Fair CLR 13 -3 33% 76.4 0.0
02 10:35 W 17 G 28 16.09 Fair CLR 13 -3 33% 76.4 0.0
02 10:15 W 19 G 30 16.09 Fair CLR 12 -3 35% 76.4 0.0
02 09:55 SW 22 G 31 16.09 Fair CLR 12 -2 38% 76.43 0.0
02 09:35 W 26 16.09 Fair CLR 11 -2 41% 76.43 0.0
02 09:15 W 19 G 28 16.09 Fair CLR 10 -1 47% 8 76.45 0.0
02 08:55 W 19 16.09 Fair CLR 10 -2 43% 8 76.45 0.0
02 08:35 W 22 16.09 Fair CLR 8 -1 53% 5 76.48 0.0
02 08:15 W 19 16.09 Fair CLR 7 -1 57% 4 76.48 0.0
02 07:55 W 13 16.09 Fair CLR 6 -1 61% 4 76.48 0.0
02 07:35 W 15 16.09 Fair CLR 4 -1 70% 1 76.48 0.0
02 07:15 W 17 11.27 Fair CLR 3 -1 75% -1 76.48 0.0
02 06:55 SW 11 16.09 Fair CLR 2 -1 81% -1 76.45 0.0
02 06:35 W 11 16.09 Fair CLR 1 -2 81% -2 76.45 0.0
02 06:15 W 15 16.09 Fair CLR 1 -2 81% -3 76.48 0.0
02 05:55 W 15 16.09 Fair CLR 1 -2 81% -3 76.45 0.0
02 05:35 W 13 16.09 Fair CLR 0 -2 87% -4 76.48 0.0
02 05:15 W 11 16.09 Fair CLR 0 -2 87% -3 76.48 0.0
02 04:55 SW 11 16.09 Fair CLR 1 -2 81% -2 76.48 0.0
02 04:35 SW 9 16.09 Fair CLR 1 -2 81% -2 76.45 0.0
02 04:15 SW 11 16.09 Fair CLR 1 -2 81% -2 76.45 0.0
02 03:55 SW 11 16.09 Fair CLR 1 -2 81% -2 76.45 0.0
02 03:35 W 9 16.09 Fair CLR 1 -2 81% -2 76.45 0.0
02 03:15 W 11 16.09 Fair CLR 1 -2 81% -2 76.45 0.0
02 02:55 W 13 16.09 Fair CLR 2 -2 75% -1 76.45 0.0
02 02:35 SW 13 16.09 Fair CLR 2 -2 75% -1 76.45 0.0
02 02:15 W 11 16.09 Fair CLR 2 -2 75% -1 76.48 0.0
02 01:55 W 11 16.09 Fair CLR 2 -2 75% -1 76.48 0.0
02 01:35 SW 9 16.09 Fair CLR 2 -1 81% -0 76.48 0.0
02 01:15 SW 11 16.09 Fair CLR 2 -1 81% -1 76.5 0.0
02 00:55 SW 9 16.09 Fair CLR 2 -1 81% -0 76.48 0.0
02 00:35 SW 11 16.09 Fair CLR 2 -1 81% -1 76.48 0.0
02 00:15 W 9 16.09 Fair CLR 2 -1 81% -0 76.48 0.0
01 23:55 W 9 16.09 Fair CLR 3 -1 75% 1 76.48 0.0
01 23:35 SW 7 16.09 Fair CLR 3 1 87% 1 76.48 0.0
01 23:15 SW 7 14.48 Fair CLR 4 0 75% 2 76.48 0.0
01 22:55 SW 7 12.87 Fair CLR 4 0 75% 2 76.48 0.0
01 22:35 SW 6 14.48 Fair CLR 5 -1 66% 76.48 0.0
01 22:15 Calm 16.09 Fair CLR 5 -1 66% 76.48 0.0
01 21:55 W 6 16.09 Fair CLR 6 -2 57% 76.48 0.0
01 21:35 Calm 16.09 Fair CLR 6 -2 57% 76.48 0.0
01 21:15 Calm 16.09 Fair CLR 6 -2 57% 76.45 0.0
01 20:55 N 6 16.09 A Few Clouds FEW070 8 -3 46% 76.45 0.0
01 20:35 N 9 16.09 Partly Cloudy SCT070 7 -1 57% 5 76.43 0.0
01 20:15 N 11 16.09 Fair CLR 8 -1 53% 6 76.43 0.0
01 19:55 N 13 16.09 A Few Clouds FEW070 9 -2 46% 7 76.4 0.0
01 19:35 N 17 16.09 Mostly Cloudy BKN070 10 -3 40% 8 76.4 0.0
01 19:15 Calm 16.09 Overcast OVC070 11 -4 35% 76.4 0.0
01 18:55 N 19 16.09 Mostly Cloudy BKN065 11 -4 35% 76.4 0.0
01 18:35 N 15 16.09 A Few Clouds FEW075 10 -3 40% 8 76.4 0.0
01 18:15 N 13 16.09 Mostly Cloudy BKN070 10 -4 37% 8 76.4 0.0
01 17:55 N 13 G 22 16.09 Mostly Cloudy BKN070 10 -4 37% 8 76.4 0.0
01 17:35 N 17 16.09 Mostly Cloudy BKN070 11 -4 35% 76.38 0.0
01 17:15 N 15 16.09 Mostly Cloudy BKN065 10 -4 37% 8 76.4 0.0
01 16:55 N 17 16.09 Partly Cloudy SCT070 11 -4 35% 76.38 0.0
01 16:35 N 19 16.09 Mostly Cloudy BKN065 BKN075 11 -4 35% 76.4 0.0
01 16:15 N 17 G 31 16.09 Partly Cloudy SCT065 11 -4 35% 76.38 0.0
01 15:55 N 19 G 28 16.09 A Few Clouds FEW065 11 -4 35% 76.4 0.0
01 15:35 N 22 16.09 Mostly Cloudy SCT060 BKN070 11 -3 38% 76.4 0.0
01 15:15 N 13 G 30 16.09 Mostly Cloudy BKN060 BKN070 11 -3 38% 76.4 0.0
01 14:55 N 17 16.09 Mostly Cloudy BKN060 10 -4 37% 8 76.43 0.0
01 14:35 NE 9 G 19 16.09 Mostly Cloudy BKN060 12 -3 35% 76.4 0.0
01 14:15 N 22 16.09 Mostly Cloudy SCT055 BKN065 11 -3 38% 76.4 0.0
01 13:55 N 15 G 30 16.09 Mostly Cloudy BKN055 BKN065 10 -3 40% 8 76.4 0.0
01 13:35 N 15 G 24 16.09 Mostly Cloudy BKN060 11 -3 38% 76.4 0.0
01 13:15 NE 15 16.09 Mostly Cloudy BKN055 10 -3 40% 8 76.4 0.0
01 12:55 Vrbl 11 G 24 16.09 Partly Cloudy SCT055 10 -4 37% 9 76.4 0.0
01 12:35 N 17 16.09 Mostly Cloudy SCT050 BKN055 10 -3 40% 8 76.43 0.0
01 12:15 Vrbl 11 16.09 Mostly Cloudy SCT048 BKN055 9 -3 43% 8 76.4 0.0
01 11:55 N 20 16.09 Partly Cloudy FEW045 SCT055 10 -2 43% 8 76.4 0.0
01 11:35 N 11 G 22 16.09 A Few Clouds FEW040 9 -1 50% 8 76.4 0.0
Date Time (cdt) Wind (kph) Vis. (km) Weather Sky Cond. Air Dwpt Max. Min. Relative Humidity Wind Chill (°C) Heat Index (°C) altimeter (cm) sea level (mb) 1 hr 3 hr 6 hr
6 hour
Temperature (ºC) Pressure Precipitation (cm)